createdAt,value
2023-03-28T00:00:00.000Z,77.9
2023-03-28T00:01:15.000Z,77.8
2023-03-28T00:02:32.000Z,77.8
2023-03-28T00:03:48.000Z,77.8
2023-03-28T00:05:04.000Z,77.9
2023-03-28T00:06:20.000Z,77.8
2023-03-28T00:07:36.000Z,77.9
2023-03-28T00:08:53.000Z,77.9
2023-03-28T00:10:09.000Z,77.7
2023-03-28T00:11:25.424Z,77.7
2023-03-28T00:12:41.000Z,77.8
2023-03-28T00:13:57.000Z,77.8
2023-03-28T00:15:14.000Z,77.7
2023-03-28T00:16:30.000Z,77.9
2023-03-28T00:17:45.000Z,77.9
2023-03-28T00:19:01.000Z,77.9
2023-03-28T00:20:17.000Z,77.8
2023-03-28T00:21:34.000Z,77.9
2023-03-28T00:22:50.000Z,78.3
2023-03-28T00:24:06.381Z,78.3
2023-03-28T00:25:22.000Z,78.3
2023-03-28T00:26:38.000Z,78.2
2023-03-28T00:27:55.000Z,78.4
2023-03-28T00:29:11.000Z,78.5
2023-03-28T00:30:27.000Z,78.6
2023-03-28T00:31:43.000Z,78.5
2023-03-28T00:32:59.000Z,78.5
2023-03-28T00:34:14.000Z,78.5
2023-03-28T00:35:31.000Z,78.8
2023-03-28T00:36:47.000Z,78.8
2023-03-28T00:38:03.000Z,78.6
2023-03-28T00:39:19.000Z,78.6
2023-03-28T00:40:35.000Z,78.8
2023-03-28T00:41:52.000Z,78.7
2023-03-28T00:43:08.000Z,78.5
2023-03-28T00:44:24.000Z,78.6
2023-03-28T00:45:40.000Z,78.8
2023-03-28T00:46:56.000Z,78.8
2023-03-28T00:48:13.000Z,79
2023-03-28T00:49:29.265Z,78.8
2023-03-28T00:50:44.000Z,78.8
2023-03-28T00:52:00.000Z,78.8
2023-03-28T00:53:16.000Z,78.7
2023-03-28T00:54:33.000Z,78.7
2023-03-28T00:55:49.000Z,78.7
2023-03-28T00:57:05.000Z,78.8
2023-03-28T00:58:21.000Z,78.8
2023-03-28T00:59:37.000Z,78.8
2023-03-28T01:00:54.000Z,78.8
2023-03-28T01:02:10.225Z,78.8
2023-03-28T01:03:26.422Z,78.8
2023-03-28T01:04:42.000Z,78.8
2023-03-28T01:05:58.000Z,79.1
2023-03-28T01:07:14.020Z,79.2
2023-03-28T01:08:30.000Z,79.2
2023-03-28T01:09:46.000Z,79.3
2023-03-28T01:11:02.000Z,79.4
2023-03-28T01:12:18.000Z,79.6
2023-03-28T01:13:35.000Z,79.6
2023-03-28T01:14:51.000Z,79.4
2023-03-28T01:16:07.000Z,79.4
2023-03-28T01:17:23.000Z,79.4
2023-03-28T01:18:39.000Z,79.4
2023-03-28T01:19:56.000Z,79.5
2023-03-28T01:21:12.000Z,79.4
2023-03-28T01:22:28.000Z,79.6
2023-03-28T01:23:43.000Z,79.7
2023-03-28T01:24:59.000Z,79.7
2023-03-28T01:26:16.000Z,79.8
2023-03-28T01:27:32.179Z,79.9
2023-03-28T01:28:48.000Z,80
2023-03-28T01:30:04.000Z,80.2
2023-03-28T01:31:20.000Z,80.2
2023-03-28T01:32:37.000Z,80.3
2023-03-28T01:33:53.000Z,80.2
2023-03-28T01:35:09.000Z,80.3
2023-03-28T01:36:25.000Z,80.5
2023-03-28T01:37:41.000Z,80.3
2023-03-28T01:38:57.000Z,80
2023-03-28T01:40:13.000Z,80
2023-03-28T01:41:29.000Z,79.9
2023-03-28T01:42:45.000Z,79.8
2023-03-28T01:44:01.000Z,79.9
2023-03-28T01:45:17.000Z,79.9
2023-03-28T01:46:34.000Z,79.8
2023-03-28T01:47:50.000Z,79.9
2023-03-28T01:49:06.000Z,79.9
2023-03-28T01:50:22.000Z,80
2023-03-28T01:51:38.000Z,80
2023-03-28T01:52:55.104Z,80
2023-03-28T01:54:11.000Z,80
2023-03-28T01:55:27.000Z,80
2023-03-28T01:56:42.000Z,80
2023-03-28T01:57:58.000Z,80
2023-03-28T01:59:15.000Z,80.1
2023-03-28T02:00:31.000Z,80.1
2023-03-28T02:01:47.000Z,80.2
2023-03-28T02:03:03.000Z,80.3
2023-03-28T02:04:19.000Z,80.5
2023-03-28T02:05:36.065Z,80.5
2023-03-28T02:06:52.000Z,80.5
2023-03-28T02:08:08.000Z,80.9
2023-03-28T02:09:24.000Z,80.8
2023-03-28T02:10:40.000Z,80.8
2023-03-28T02:11:57.000Z,80.8
2023-03-28T02:13:12.000Z,80.7
2023-03-28T02:14:28.000Z,80.7
2023-03-28T02:15:44.000Z,80.9
2023-03-28T02:17:00.000Z,81.1
2023-03-28T02:18:17.000Z,81.2
2023-03-28T02:19:33.000Z,81.2
2023-03-28T02:20:49.000Z,81.5
2023-03-28T02:22:05.000Z,81.7
2023-03-28T02:23:21.000Z,81.7
2023-03-28T02:24:38.000Z,81.7
2023-03-28T02:25:54.000Z,81.7
2023-03-28T02:27:10.000Z,81.6
2023-03-28T02:28:26.000Z,81.6
2023-03-28T02:29:41.000Z,81.5
2023-03-28T02:30:58.000Z,81.8
2023-03-28T02:32:14.000Z,82.3
2023-03-28T02:33:30.000Z,82.2
2023-03-28T02:34:46.000Z,82.4
2023-03-28T02:36:02.000Z,82.3
2023-03-28T02:37:19.000Z,82.4
2023-03-28T02:38:35.000Z,82.7
2023-03-28T02:39:51.380Z,82.6
2023-03-28T02:41:07.000Z,82.7
2023-03-28T02:42:23.000Z,82.9
2023-03-28T02:43:39.982Z,83.2
2023-03-28T02:44:56.000Z,83.2
2023-03-28T02:46:11.000Z,83.1
2023-03-28T02:47:27.000Z,82.7
2023-03-28T02:48:43.000Z,82.5
2023-03-28T02:50:00.000Z,82.8
2023-03-28T02:51:16.000Z,83.1
2023-03-28T02:52:32.000Z,83
2023-03-28T02:53:48.000Z,82.9
2023-03-28T02:55:04.000Z,82.7
2023-03-28T02:56:21.000Z,82.5
2023-03-28T02:57:37.000Z,82.6
2023-03-28T02:58:53.000Z,82.5
2023-03-28T03:00:09.000Z,82.6
2023-03-28T03:01:25.000Z,82.6
2023-03-28T03:02:41.000Z,82.4
2023-03-28T03:03:57.000Z,82.4
2023-03-28T03:05:13.000Z,82.4
2023-03-28T03:06:29.000Z,82.4
2023-03-28T03:07:45.000Z,82.4
2023-03-28T03:09:01.000Z,82.4
2023-03-28T03:10:18.000Z,82.6
2023-03-28T03:11:34.000Z,82.7
2023-03-28T03:12:50.000Z,82.6
2023-03-28T03:14:06.000Z,82.8
2023-03-28T03:15:22.000Z,82.8
2023-03-28T03:16:39.000Z,82.8
2023-03-28T03:17:55.000Z,83.3
2023-03-28T03:19:10.000Z,83.4
2023-03-28T03:20:26.000Z,83.4
2023-03-28T03:21:42.894Z,83.2
2023-03-28T03:22:59.000Z,83.1
2023-03-28T03:24:15.000Z,83.1
2023-03-28T03:25:31.000Z,83
2023-03-28T03:26:47.000Z,83.6
2023-03-28T03:28:03.000Z,84
2023-03-28T03:29:20.000Z,84.1
2023-03-28T03:30:36.000Z,84.1
2023-03-28T03:31:52.000Z,83.9
2023-03-28T03:33:08.000Z,83.9
2023-03-28T03:34:24.000Z,83.6
2023-03-28T03:35:40.000Z,83.3
2023-03-28T03:36:56.000Z,83.2
2023-03-28T03:38:12.000Z,82.9
2023-03-28T03:39:28.000Z,82.7
2023-03-28T03:40:44.000Z,82.5
2023-03-28T03:42:01.000Z,82.3
2023-03-28T03:43:17.000Z,82.3
2023-03-28T03:44:33.000Z,82.4
2023-03-28T03:45:49.000Z,82.8
2023-03-28T03:47:05.000Z,83
2023-03-28T03:48:22.000Z,83.2
2023-03-28T03:49:38.000Z,83.1
2023-03-28T03:50:54.000Z,83
2023-03-28T03:52:09.000Z,82.8
2023-03-28T03:53:25.000Z,83
2023-03-28T03:54:42.000Z,83
2023-03-28T03:55:58.000Z,83
2023-03-28T03:57:14.000Z,83.1
2023-03-28T03:58:30.000Z,83.3
2023-03-28T03:59:45.808Z,83.2
2023-03-28T04:01:02.000Z,83.2
2023-03-28T04:02:18.000Z,83.3
2023-03-28T04:03:34.000Z,83
2023-03-28T04:04:50.000Z,82.8
2023-03-28T04:06:06.000Z,83
2023-03-28T04:07:23.000Z,83
2023-03-28T04:08:39.000Z,83.1
2023-03-28T04:09:55.000Z,83.2
2023-03-28T04:11:11.000Z,83.3
2023-03-28T04:12:27.000Z,83.3
2023-03-28T04:13:44.000Z,83.3
2023-03-28T04:15:00.000Z,83.3
2023-03-28T04:16:15.000Z,83.2
2023-03-28T04:17:31.000Z,83.2
2023-03-28T04:18:47.000Z,83.3
2023-03-28T04:20:04.000Z,83.9
2023-03-28T04:21:20.000Z,84.2
2023-03-28T04:22:36.000Z,85
2023-03-28T04:23:52.000Z,85
2023-03-28T04:25:08.000Z,84.8
2023-03-28T04:26:25.000Z,84.4
2023-03-28T04:27:41.000Z,84
2023-03-28T04:28:57.000Z,83.9
2023-03-28T04:30:13.000Z,84.1
2023-03-28T04:31:29.000Z,84.3
2023-03-28T04:32:45.000Z,84.4
2023-03-28T04:34:01.000Z,84.4
2023-03-28T04:35:17.000Z,84.2
2023-03-28T04:36:33.000Z,84.4
2023-03-28T04:37:49.727Z,84.4
2023-03-28T04:39:05.000Z,84.3
2023-03-28T04:40:22.000Z,84.3
2023-03-28T04:41:38.000Z,84.5
2023-03-28T04:42:54.000Z,84.8
2023-03-28T04:44:10.690Z,84.6
2023-03-28T04:45:26.000Z,84.5
2023-03-28T04:46:43.000Z,84.4
2023-03-28T04:47:59.000Z,84.8
2023-03-28T04:49:14.000Z,85.2
2023-03-28T04:50:30.000Z,85.3
2023-03-28T04:51:46.000Z,85.4
2023-03-28T04:53:03.000Z,85.2
2023-03-28T04:54:19.000Z,85.4
2023-03-28T04:55:35.000Z,85.2
2023-03-28T04:56:51.000Z,85
2023-03-28T04:58:07.000Z,85.2
2023-03-28T04:59:24.000Z,85.4
2023-03-28T05:00:40.000Z,85.6
2023-03-28T05:01:56.000Z,85.8
2023-03-28T05:03:12.000Z,85.9
2023-03-28T05:04:28.000Z,85.9
2023-03-28T05:05:44.000Z,85.4
2023-03-28T05:07:00.000Z,85.1
2023-03-28T05:08:16.000Z,84.8
2023-03-28T05:09:32.000Z,84.5
2023-03-28T05:10:48.000Z,84.8
2023-03-28T05:12:05.000Z,84.8
2023-03-28T05:13:21.000Z,84.8
2023-03-28T05:14:37.000Z,84.5
2023-03-28T05:15:53.000Z,84.4
2023-03-28T05:17:09.000Z,84.5
2023-03-28T05:18:26.000Z,84.5
2023-03-28T05:19:42.000Z,84.8
2023-03-28T05:20:58.000Z,84.8
2023-03-28T05:22:13.000Z,84.8
2023-03-28T05:23:29.000Z,84.6
2023-03-28T05:24:46.000Z,84.3
2023-03-28T05:26:02.000Z,84.4
2023-03-28T05:27:18.000Z,84.3
2023-03-28T05:28:34.607Z,84.1
2023-03-28T05:29:50.000Z,84
2023-03-28T05:31:07.000Z,83.9
2023-03-28T05:32:23.000Z,84.2
2023-03-28T05:33:39.000Z,84.8
2023-03-28T05:34:55.000Z,85
2023-03-28T05:36:11.000Z,85.1
2023-03-28T05:37:28.000Z,85
2023-03-28T05:38:43.000Z,84.6
2023-03-28T05:39:59.000Z,84.8
2023-03-28T05:41:15.560Z,85.1
2023-03-28T05:42:31.000Z,85.5
2023-03-28T05:43:48.000Z,85.6
2023-03-28T05:45:04.000Z,85.5
2023-03-28T05:46:20.000Z,85.2
2023-03-28T05:47:36.543Z,84.8
2023-03-28T05:48:52.000Z,84.6
2023-03-28T05:50:09.000Z,84.4
2023-03-28T05:51:25.000Z,84
2023-03-28T05:52:41.336Z,83.4
2023-03-28T05:53:57.000Z,83.7
2023-03-28T05:55:12.000Z,84
2023-03-28T05:56:29.000Z,83.9
2023-03-28T05:57:45.000Z,84.1
2023-03-28T05:59:01.000Z,84
2023-03-28T06:00:17.000Z,83.6
2023-03-28T06:01:33.000Z,83.2
2023-03-28T06:02:49.000Z,82.9
2023-03-28T06:04:06.000Z,82.9
2023-03-28T06:05:22.000Z,82.8
2023-03-28T06:06:38.494Z,82.6
2023-03-28T06:07:54.690Z,82.3
2023-03-28T06:09:10.000Z,81.9
2023-03-28T06:10:27.000Z,82
2023-03-28T06:11:42.000Z,82.3
2023-03-28T06:12:58.000Z,82.6
2023-03-28T06:14:14.000Z,82.3
2023-03-28T06:15:30.000Z,82.7
2023-03-28T06:16:47.000Z,82.8
2023-03-28T06:18:03.000Z,82.9
2023-03-28T06:19:19.472Z,83.1
2023-03-28T06:20:35.000Z,82.8
2023-03-28T06:21:51.000Z,82.6
2023-03-28T06:23:08.000Z,82.3
2023-03-28T06:24:24.000Z,82
2023-03-28T06:25:40.456Z,79.8
2023-03-28T06:26:56.000Z,75.5
2023-03-28T06:28:11.000Z,72.4
2023-03-28T06:29:28.000Z,72.8
2023-03-28T06:30:44.000Z,73.9
2023-03-28T06:32:00.000Z,74.6
2023-03-28T06:33:16.000Z,75.1
2023-03-28T06:34:32.000Z,75.6
2023-03-28T06:35:49.000Z,75.4
2023-03-28T06:37:05.000Z,75.8
2023-03-28T06:38:21.427Z,76.4
2023-03-28T06:39:37.000Z,77.1
2023-03-28T06:40:53.000Z,74.5
2023-03-28T06:42:10.000Z,69.1
2023-03-28T06:43:26.000Z,65.4
2023-03-28T06:44:41.000Z,63.6
2023-03-28T06:45:57.000Z,62.6
2023-03-28T06:47:13.000Z,60.5
2023-03-28T06:48:30.000Z,58.4
2023-03-28T06:49:46.000Z,56.5
2023-03-28T06:51:02.000Z,54.7
2023-03-28T06:52:18.000Z,53.7
2023-03-28T06:53:34.000Z,53.1
2023-03-28T06:54:51.000Z,52.7
2023-03-28T06:56:07.000Z,51.6
2023-03-28T06:57:23.000Z,50.4
2023-03-28T06:58:39.000Z,49.6
2023-03-28T06:59:55.000Z,48.8
2023-03-28T07:01:11.000Z,49.2
2023-03-28T07:02:27.000Z,51.1
2023-03-28T07:03:43.000Z,52.3
2023-03-28T07:04:59.000Z,53.2
2023-03-28T07:06:15.000Z,54.1
2023-03-28T07:07:32.000Z,54.8
2023-03-28T07:08:48.000Z,55.5
2023-03-28T07:10:04.000Z,56.9
2023-03-28T07:11:20.000Z,59
2023-03-28T07:12:36.000Z,60.8
2023-03-28T07:13:53.000Z,62
2023-03-28T07:15:09.000Z,62.5
2023-03-28T07:16:25.000Z,63.2
2023-03-28T07:17:40.000Z,64.2
2023-03-28T07:18:56.000Z,64
2023-03-28T07:20:12.000Z,64.3
2023-03-28T07:21:29.000Z,65.1
2023-03-28T07:22:45.000Z,65.8
2023-03-28T07:24:01.000Z,66.5
2023-03-28T07:25:17.000Z,67.5
2023-03-28T07:26:33.000Z,68
2023-03-28T07:27:50.000Z,68.8
2023-03-28T07:29:06.000Z,69.8
2023-03-28T07:30:22.000Z,70.4
2023-03-28T07:31:38.000Z,70.8
2023-03-28T07:32:54.000Z,71.3
2023-03-28T07:34:10.000Z,72.5
2023-03-28T07:35:26.000Z,73.4
2023-03-28T07:36:42.000Z,73.2
2023-03-28T07:37:58.000Z,72.9
2023-03-28T07:39:14.000Z,73
2023-03-28T07:40:31.000Z,72.6
2023-03-28T07:41:47.000Z,71.6
2023-03-28T07:43:03.000Z,71
2023-03-28T07:44:19.000Z,70.7
2023-03-28T07:45:35.000Z,70
2023-03-28T07:46:52.000Z,69.8
2023-03-28T07:48:08.240Z,69.6
2023-03-28T07:49:24.000Z,68.8
2023-03-28T07:50:39.000Z,67.1
2023-03-28T07:51:55.000Z,66
2023-03-28T07:53:12.000Z,64.1
2023-03-28T07:54:28.000Z,62.7
2023-03-28T07:55:44.000Z,62.8
2023-03-28T07:57:00.000Z,61
2023-03-28T07:58:16.000Z,59.1
2023-03-28T07:59:33.000Z,58.8
2023-03-28T08:00:49.212Z,58.7
2023-03-28T08:02:05.000Z,56.9
2023-03-28T08:03:21.000Z,56.5
2023-03-28T08:04:37.000Z,56.7
2023-03-28T08:05:54.000Z,56.3
2023-03-28T08:07:09.000Z,57.2
2023-03-28T08:08:25.000Z,57.1
2023-03-28T08:09:41.000Z,56.5
2023-03-28T08:10:57.000Z,56.5
2023-03-28T08:12:14.000Z,57
2023-03-28T08:13:30.000Z,56.9
2023-03-28T08:14:45.000Z,56.6
2023-03-28T08:16:01.000Z,56.4
2023-03-28T08:17:17.000Z,56.7
2023-03-28T08:18:34.000Z,56.6
2023-03-28T08:19:50.000Z,56.6
2023-03-28T08:21:06.000Z,56.7
2023-03-28T08:22:22.000Z,56.6
2023-03-28T08:23:38.000Z,56.7
2023-03-28T08:24:55.000Z,56.2
2023-03-28T08:26:11.000Z,56
2023-03-28T08:27:27.000Z,55.3
2023-03-28T08:28:43.000Z,53.4
2023-03-28T08:29:59.000Z,54.2
2023-03-28T08:31:15.000Z,53.9
2023-03-28T08:32:31.000Z,53.2
2023-03-28T08:33:47.000Z,52.8
2023-03-28T08:35:03.000Z,51.3
2023-03-28T08:36:19.000Z,49.2
2023-03-28T08:37:36.000Z,48.8
2023-03-28T08:38:52.135Z,49.6
2023-03-28T08:40:08.000Z,49.9
2023-03-28T08:41:24.000Z,49.8
2023-03-28T08:42:40.000Z,49
2023-03-28T08:43:56.000Z,48.8
2023-03-28T08:45:13.000Z,48.4
2023-03-28T08:46:29.000Z,47.6
2023-03-28T08:47:44.000Z,47.1
2023-03-28T08:49:00.000Z,47.3
2023-03-28T08:50:16.903Z,46.3
2023-03-28T08:51:33.000Z,45.8
2023-03-28T08:52:49.000Z,44
2023-03-28T08:54:05.000Z,42.8
2023-03-28T08:55:21.000Z,41.4
2023-03-28T08:56:37.000Z,41.4
2023-03-28T08:57:54.077Z,40.9
2023-03-28T08:59:10.000Z,41.4
2023-03-28T09:00:26.000Z,41.7
2023-03-28T09:01:42.000Z,41.6
2023-03-28T09:02:58.000Z,41.8
2023-03-28T09:04:14.000Z,41.2
2023-03-28T09:05:30.000Z,40.8
2023-03-28T09:06:46.480Z,41.1
2023-03-28T09:08:02.000Z,40.1
2023-03-28T09:09:18.000Z,40.3
2023-03-28T09:10:35.000Z,41.2
2023-03-28T09:11:51.000Z,41.6
2023-03-28T09:13:07.448Z,41.7
2023-03-28T09:14:23.000Z,41.4
2023-03-28T09:15:39.000Z,41.5
2023-03-28T09:16:56.048Z,41
2023-03-28T09:18:12.000Z,42.3
2023-03-28T09:19:28.000Z,43.2
2023-03-28T09:20:43.000Z,44
2023-03-28T09:21:59.000Z,43.6
2023-03-28T09:23:16.043Z,42.3
2023-03-28T09:24:32.000Z,41.2
2023-03-28T09:25:48.000Z,40.1
2023-03-28T09:27:04.000Z,39.5
2023-03-28T09:28:20.816Z,39.7
2023-03-28T09:29:37.025Z,40.6
2023-03-28T09:30:53.000Z,41.8
2023-03-28T09:32:09.000Z,43
2023-03-28T09:33:25.000Z,44
2023-03-28T09:34:41.000Z,43.8
2023-03-28T09:35:57.986Z,44.4
2023-03-28T09:37:13.000Z,44.6
2023-03-28T09:38:29.000Z,45.1
2023-03-28T09:39:45.000Z,44.4
2023-03-28T09:41:01.000Z,45.4
2023-03-28T09:42:18.000Z,46.4
2023-03-28T09:43:34.000Z,47
2023-03-28T09:44:50.000Z,47.1
2023-03-28T09:46:06.000Z,48.1
2023-03-28T09:47:22.000Z,47.9
2023-03-28T09:48:39.000Z,48.1
2023-03-28T09:49:55.000Z,47.9
2023-03-28T09:51:11.000Z,48.4
2023-03-28T09:52:27.000Z,48.4
2023-03-28T09:53:42.000Z,48.7
2023-03-28T09:54:58.963Z,47.9
2023-03-28T09:56:15.000Z,48.2
2023-03-28T09:57:31.000Z,49.1
2023-03-28T09:58:47.545Z,49.6
2023-03-28T10:00:03.000Z,50
2023-03-28T10:01:20.000Z,50.3
2023-03-28T10:02:36.000Z,51.4
2023-03-28T10:03:52.000Z,51.8
2023-03-28T10:05:08.000Z,51.9
2023-03-28T10:06:24.000Z,50.4
2023-03-28T10:07:40.000Z,51.1
2023-03-28T10:08:57.000Z,51.5
2023-03-28T10:10:12.000Z,51.4
2023-03-28T10:11:28.000Z,51.1
2023-03-28T10:12:44.000Z,51
2023-03-28T10:14:00.000Z,51.3
2023-03-28T10:15:17.000Z,51
2023-03-28T10:16:33.000Z,51
2023-03-28T10:17:49.000Z,50.5
2023-03-28T10:19:05.000Z,50.5
2023-03-28T10:20:21.000Z,50.5
2023-03-28T10:21:38.000Z,50.4
2023-03-28T10:22:54.000Z,50.1
2023-03-28T10:24:10.000Z,50
2023-03-28T10:25:26.000Z,50.1
2023-03-28T10:26:41.000Z,50.4
2023-03-28T10:27:58.000Z,50.4
2023-03-28T10:29:14.000Z,51.3
2023-03-28T10:30:30.000Z,50.3
2023-03-28T10:31:46.000Z,50.6
2023-03-28T10:33:02.917Z,50
2023-03-28T10:34:19.000Z,49.5
2023-03-28T10:35:35.000Z,48.7
2023-03-28T10:36:51.000Z,47.9
2023-03-28T10:38:07.000Z,47.8
2023-03-28T10:39:23.000Z,48.5
2023-03-28T10:40:40.000Z,47.8
2023-03-28T10:41:56.000Z,48.4
2023-03-28T10:43:11.000Z,47.9
2023-03-28T10:44:27.000Z,48.4
2023-03-28T10:45:43.000Z,47.9
2023-03-28T10:47:00.000Z,47.2
2023-03-28T10:48:16.000Z,46.9
2023-03-28T10:49:32.000Z,47.4
2023-03-28T10:50:48.000Z,48.1
2023-03-28T10:52:04.000Z,48.5
2023-03-28T10:53:21.000Z,48.7
2023-03-28T10:54:37.000Z,49.1
2023-03-28T10:55:53.000Z,49.2
2023-03-28T10:57:09.000Z,49.1
2023-03-28T10:58:25.000Z,48.7
2023-03-28T10:59:41.000Z,49.1
2023-03-28T11:00:57.000Z,49.3
2023-03-28T11:02:13.000Z,49.8
2023-03-28T11:03:29.000Z,50
2023-03-28T11:04:45.000Z,50.1
2023-03-28T11:06:01.000Z,50.1
2023-03-28T11:07:18.000Z,50
2023-03-28T11:08:34.000Z,50
2023-03-28T11:09:50.000Z,50
2023-03-28T11:11:06.000Z,49.9
2023-03-28T11:12:22.000Z,49.7
2023-03-28T11:13:39.000Z,49.5
2023-03-28T11:14:55.000Z,49.6
2023-03-28T11:16:10.000Z,49.2
2023-03-28T11:17:26.000Z,49.5
2023-03-28T11:18:42.000Z,49
2023-03-28T11:19:59.000Z,48.5
2023-03-28T11:21:15.000Z,48.8
2023-03-28T11:22:31.000Z,48.5
2023-03-28T11:23:47.690Z,47.8
2023-03-28T11:25:03.000Z,46.6
2023-03-28T11:26:20.000Z,47.3
2023-03-28T11:27:36.000Z,47.5
2023-03-28T11:28:52.000Z,48
2023-03-28T11:30:08.652Z,47.8
2023-03-28T11:31:24.000Z,48.3
2023-03-28T11:32:40.000Z,48.6
2023-03-28T11:33:56.000Z,49.2
2023-03-28T11:35:12.000Z,48.6
2023-03-28T11:36:28.000Z,48.6
2023-03-28T11:37:44.833Z,48.9
2023-03-28T11:39:01.000Z,49.1
2023-03-28T11:40:17.000Z,49.5
2023-03-28T11:41:33.000Z,49.4
2023-03-28T11:42:49.000Z,49.1
2023-03-28T11:44:05.000Z,49.5
2023-03-28T11:45:22.000Z,49.3
2023-03-28T11:46:38.000Z,48.3
2023-03-28T11:47:54.000Z,48.3
2023-03-28T11:49:09.000Z,48.2
2023-03-28T11:50:25.000Z,48.6
2023-03-28T11:51:41.000Z,48.3
2023-03-28T11:52:58.163Z,47.4
2023-03-28T11:54:14.000Z,47.8
2023-03-28T11:55:30.000Z,48.2
2023-03-28T11:56:46.000Z,46.6
2023-03-28T11:58:02.000Z,47.2
2023-03-28T11:59:19.000Z,47.1
2023-03-28T12:00:35.000Z,46.6
2023-03-28T12:01:51.518Z,47
2023-03-28T12:03:07.000Z,48
2023-03-28T12:04:23.000Z,48.9
2023-03-28T12:05:39.000Z,49.1
2023-03-28T12:06:55.000Z,49.4
2023-03-28T12:08:11.000Z,49.1
2023-03-28T12:09:27.707Z,48.7
2023-03-28T12:10:43.000Z,48.7
2023-03-28T12:12:00.000Z,48.7
2023-03-28T12:13:16.283Z,48
2023-03-28T12:14:32.469Z,47.9
2023-03-28T12:15:48.000Z,48
2023-03-28T12:17:04.000Z,47.2
2023-03-28T12:18:21.000Z,47.8
2023-03-28T12:19:37.000Z,47.9
2023-03-28T12:20:53.000Z,48.3
2023-03-28T12:22:08.000Z,48.5
2023-03-28T12:23:24.000Z,48.6
2023-03-28T12:24:41.000Z,48.7
2023-03-28T12:25:57.235Z,48.9
2023-03-28T12:27:13.000Z,48.3
2023-03-28T12:28:29.000Z,48.3
2023-03-28T12:29:44.000Z,46.4
2023-03-28T12:31:01.000Z,45.9
2023-03-28T12:32:17.000Z,46.6
2023-03-28T12:33:33.000Z,47.2
2023-03-28T12:34:49.000Z,46.5
2023-03-28T12:36:05.000Z,46.4
2023-03-28T12:37:22.000Z,45.9
2023-03-28T12:38:38.183Z,46.1
2023-03-28T12:39:54.364Z,46.7
2023-03-28T12:41:10.000Z,46.5
2023-03-28T12:42:26.000Z,46.3
2023-03-28T12:43:42.000Z,46.6
2023-03-28T12:44:59.138Z,47
2023-03-28T12:46:14.364Z,47.2
2023-03-28T12:47:30.000Z,47.4
2023-03-28T12:48:46.000Z,46.7
2023-03-28T12:50:02.000Z,46.9
2023-03-28T12:51:19.000Z,46.5
2023-03-28T12:52:35.326Z,46.5
2023-03-28T12:53:51.505Z,46.7
2023-03-28T12:55:07.000Z,46.7
2023-03-28T12:56:23.000Z,47.3
2023-03-28T12:57:40.000Z,47.6
2023-03-28T12:58:56.000Z,47.4
2023-03-28T13:00:12.000Z,47.4
2023-03-28T13:01:28.682Z,47
2023-03-28T13:02:43.000Z,47.3
2023-03-28T13:04:00.000Z,47.8
2023-03-28T13:05:16.000Z,47.4
2023-03-28T13:06:32.000Z,48
2023-03-28T13:07:48.664Z,48.1
2023-03-28T13:09:04.849Z,47.5
2023-03-28T13:10:21.000Z,47.7
2023-03-28T13:11:37.000Z,46.7
2023-03-28T13:12:53.000Z,46
2023-03-28T13:14:09.000Z,46.5
2023-03-28T13:15:25.000Z,46.7
2023-03-28T13:16:42.005Z,46.6
2023-03-28T13:17:58.198Z,46.6
2023-03-28T13:19:13.000Z,46.7
2023-03-28T13:20:29.000Z,46.5
2023-03-28T13:21:45.000Z,45
2023-03-28T13:23:02.000Z,44.8
2023-03-28T13:24:18.179Z,45.4
2023-03-28T13:25:34.000Z,45.6
2023-03-28T13:26:50.571Z,45.4
2023-03-28T13:28:06.000Z,44.8
2023-03-28T13:29:22.959Z,44.7
2023-03-28T13:30:39.000Z,45.3
2023-03-28T13:31:55.352Z,44.6
2023-03-28T13:33:11.000Z,44.2
2023-03-28T13:34:27.000Z,45.8
2023-03-28T13:35:42.000Z,48.3
2023-03-28T13:36:59.000Z,45.1
2023-03-28T13:38:15.000Z,44.8
2023-03-28T13:39:31.527Z,45.8
2023-03-28T13:40:47.000Z,45.7
2023-03-28T13:42:03.000Z,45.9
2023-03-28T13:43:20.112Z,46.2
2023-03-28T13:44:36.000Z,46.1
2023-03-28T13:45:52.000Z,46
2023-03-28T13:47:08.000Z,45.5
2023-03-28T13:48:24.000Z,45.1
2023-03-28T13:49:41.000Z,46
2023-03-28T13:50:57.000Z,46.1
2023-03-28T13:52:12.000Z,46.5
2023-03-28T13:53:28.000Z,46.7
2023-03-28T13:54:44.858Z,46.5
2023-03-28T13:56:01.061Z,46.7
2023-03-28T13:57:17.000Z,46.7
2023-03-28T13:58:33.000Z,46.5
2023-03-28T13:59:49.000Z,46.3
2023-03-28T14:01:05.000Z,46.3
2023-03-28T14:02:22.000Z,46.6
2023-03-28T14:03:38.000Z,45.9
2023-03-28T14:04:54.000Z,45.8
2023-03-28T14:06:10.000Z,45.1
2023-03-28T14:07:26.000Z,45.2
2023-03-28T14:08:42.014Z,44.3
2023-03-28T14:09:58.201Z,44.1
2023-03-28T14:11:14.000Z,43.8
2023-03-28T14:12:30.000Z,44.4
2023-03-28T14:13:46.000Z,44.4
2023-03-28T14:15:02.000Z,44.6
2023-03-28T14:16:19.163Z,44.7
2023-03-28T14:17:35.000Z,44.3
2023-03-28T14:18:51.000Z,44.4
2023-03-28T14:20:07.000Z,43.8
2023-03-28T14:21:23.942Z,44.3
2023-03-28T14:22:40.000Z,44.4
2023-03-28T14:23:56.000Z,44.6
2023-03-28T14:25:11.544Z,45
2023-03-28T14:26:27.000Z,45.3
2023-03-28T14:27:43.929Z,44.9
2023-03-28T14:29:00.000Z,45.3
2023-03-28T14:30:16.000Z,45
2023-03-28T14:31:32.000Z,45.1
2023-03-28T14:32:48.699Z,45
2023-03-28T14:34:04.895Z,45.3
2023-03-28T14:35:21.000Z,44.6
2023-03-28T14:36:37.000Z,44.3
2023-03-28T14:37:53.463Z,44.8
2023-03-28T14:39:09.000Z,45.1
2023-03-28T14:40:25.000Z,45.3
2023-03-28T14:41:41.000Z,45.3
2023-03-28T14:42:57.000Z,45
2023-03-28T14:44:13.000Z,45.3
2023-03-28T14:45:29.000Z,45.6
2023-03-28T14:46:45.000Z,46.2
2023-03-28T14:48:02.000Z,46.3
2023-03-28T14:49:18.000Z,45.3
2023-03-28T14:50:34.000Z,45.7
2023-03-28T14:51:50.000Z,46.5
2023-03-28T14:53:06.000Z,45.5
2023-03-28T14:54:23.000Z,45.4
2023-03-28T14:55:39.000Z,45
2023-03-28T14:56:55.385Z,44.7
2023-03-28T14:58:10.000Z,45
2023-03-28T14:59:26.781Z,45.5
2023-03-28T15:00:42.000Z,45.6
2023-03-28T15:01:59.000Z,45.5
2023-03-28T15:03:15.000Z,45.1
2023-03-28T15:04:31.000Z,44.9
2023-03-28T15:05:47.000Z,45.2
2023-03-28T15:07:03.000Z,45
2023-03-28T15:08:20.000Z,45
2023-03-28T15:09:36.000Z,45.9
2023-03-28T15:10:52.000Z,45.3
2023-03-28T15:12:08.714Z,45.8
2023-03-28T15:13:24.899Z,45.2
2023-03-28T15:14:40.000Z,45.4
2023-03-28T15:15:56.000Z,45.3
2023-03-28T15:17:12.000Z,45
2023-03-28T15:18:28.000Z,44.7
2023-03-28T15:19:44.000Z,44.7
2023-03-28T15:21:01.000Z,44.9
2023-03-28T15:22:17.000Z,44.9
2023-03-28T15:23:33.000Z,44.6
2023-03-28T15:24:49.000Z,44.9
2023-03-28T15:26:05.000Z,43.8
2023-03-28T15:27:22.000Z,43.7
2023-03-28T15:28:38.243Z,43.8
2023-03-28T15:29:54.000Z,44
2023-03-28T15:31:09.645Z,44.3
2023-03-28T15:32:25.000Z,43.9
2023-03-28T15:33:42.000Z,43.7
2023-03-28T15:34:58.000Z,43.8
2023-03-28T15:36:14.000Z,43.8
2023-03-28T15:37:30.000Z,43.7
2023-03-28T15:38:46.000Z,43.9
2023-03-28T15:40:03.000Z,44.5
2023-03-28T15:41:19.000Z,43.9
2023-03-28T15:42:35.000Z,44.5
2023-03-28T15:43:51.000Z,44.6
2023-03-28T15:45:07.000Z,44.5
2023-03-28T15:46:23.965Z,44.6
2023-03-28T15:47:39.000Z,44.9
2023-03-28T15:48:55.000Z,44.8
2023-03-28T15:50:11.568Z,45.1
2023-03-28T15:51:27.000Z,45.9
2023-03-28T15:52:43.000Z,45.2
2023-03-28T15:54:00.000Z,44.6
2023-03-28T15:55:16.000Z,44.5
2023-03-28T15:56:32.000Z,43.8
2023-03-28T15:57:48.000Z,43.4
2023-03-28T15:59:04.000Z,43.1
2023-03-28T16:00:21.000Z,43.6
2023-03-28T16:01:37.000Z,43.3
2023-03-28T16:02:53.000Z,43.4
2023-03-28T16:04:08.000Z,43.6
2023-03-28T16:05:24.000Z,43.1
2023-03-28T16:06:41.000Z,43.3
2023-03-28T16:07:57.000Z,43.6
2023-03-28T16:09:13.000Z,43
2023-03-28T16:10:29.000Z,42.9
2023-03-28T16:11:45.000Z,42.7
2023-03-28T16:13:02.000Z,43.1
2023-03-28T16:14:18.000Z,42.8
2023-03-28T16:15:34.433Z,43
2023-03-28T16:16:50.000Z,43.3
2023-03-28T16:18:06.000Z,43.5
2023-03-28T16:19:23.000Z,43.8
2023-03-28T16:20:38.236Z,43.5
2023-03-28T16:21:54.000Z,43.9
2023-03-28T16:23:10.000Z,44
2023-03-28T16:24:26.000Z,44.1
2023-03-28T16:25:43.000Z,44.2
2023-03-28T16:26:59.000Z,44.3
2023-03-28T16:28:15.398Z,44.4
2023-03-28T16:29:31.000Z,44.4
2023-03-28T16:30:47.000Z,44.2
2023-03-28T16:32:03.000Z,44.4
2023-03-28T16:33:20.000Z,44.3
2023-03-28T16:34:36.368Z,44.6
2023-03-28T16:35:52.000Z,44.6
2023-03-28T16:37:07.000Z,44.7
2023-03-28T16:38:23.965Z,44.6
2023-03-28T16:39:40.157Z,44.6
2023-03-28T16:40:56.000Z,44.7
2023-03-28T16:42:12.000Z,44.8
2023-03-28T16:43:28.000Z,44.9
2023-03-28T16:44:43.000Z,44.8
2023-03-28T16:46:00.000Z,45.1
2023-03-28T16:47:16.000Z,45.3
2023-03-28T16:48:32.000Z,45.2
2023-03-28T16:49:48.000Z,44.9
2023-03-28T16:51:04.000Z,45.3
2023-03-28T16:52:21.000Z,45.5
2023-03-28T16:53:37.000Z,45.6
2023-03-28T16:54:53.000Z,45.6
2023-03-28T16:56:09.000Z,45.6
2023-03-28T16:57:25.000Z,45.7
2023-03-28T16:58:42.000Z,45.9
2023-03-28T16:59:58.000Z,45.8